Time;durP1;ratioP1;P1;durP2;ratioP2;P2;SDS_P1;SDS_P2;PMS_P1;PMS_P2;Temp;Humidity;BMP_temperature;BMP_pressure;BME280_temperature;BME280_humidity;BME280_pressure;Samples;Min_cycle;Max_cycle;Signal;HPM_P1;HPM_P2
2020/12/27 00:00:09;28769.00;0.10;50.45;0.00;0.00;0.62;;;;;1.80;1.00;;;;;;2273791;61;1036;-86
2020/12/27 00:02:37;0.00;0.00;0.62;0.00;0.00;0.62;;;;;1.70;1.00;;;;;;2280812;61;1162;-87
2020/12/27 00:05:04;26866.00;0.09;47.16;0.00;0.00;0.62;;;;;1.70;1.00;;;;;;2280821;61;1146;-87
2020/12/27 00:07:31;160170.00;0.53;277.33;0.00;0.00;0.62;;;;;1.80;1.00;;;;;;2280755;61;1434;-86
2020/12/27 00:09:57;49594.00;0.17;86.48;0.00;0.00;0.62;;;;;1.80;1.00;;;;;;2280778;61;1134;-87
2020/12/27 00:12:24;54730.00;0.18;95.37;0.00;0.00;0.62;;;;;1.70;1.00;;;;;;2280756;61;1122;-87
2020/12/27 00:14:50;25212.00;0.08;44.29;0.00;0.00;0.62;;;;;1.70;1.00;;;;;;2280779;61;1015;-87
2020/12/27 00:17:17;227290.00;0.76;392.89;15909.00;0.05;28.19;;;;;1.70;1.00;;;;;;2280684;61;1988;-86
2020/12/27 00:19:44;69548.00;0.23;120.98;0.00;0.00;0.62;;;;;1.70;1.00;;;;;;2280735;61;1142;-86
2020/12/27 00:22:12;80371.00;0.27;139.68;0.00;0.00;0.62;;;;;1.80;1.00;;;;;;2280778;61;1071;-86
2020/12/27 00:24:38;30181.00;0.10;52.90;0.00;0.00;0.62;;;;;1.70;1.00;;;;;;2280725;61;1573;-88
2020/12/27 00:27:05;92435.00;0.31;160.51;0.00;0.00;0.62;;;;;1.80;1.00;;;;;;2280665;61;1284;-88
2020/12/27 00:29:31;104614.00;0.35;181.54;35798.00;0.12;62.62;;;;;1.60;1.00;;;;;;2280764;61;1087;-87
2020/12/27 00:31:58;22848.00;0.08;40.20;0.00;0.00;0.62;;;;;1.50;1.00;;;;;;2280653;61;1738;-88
2020/12/27 00:34:25;106579.00;0.36;184.93;20854.00;0.07;36.75;;;;;1.60;1.00;;;;;;2280744;61;1086;-86
2020/12/27 00:36:56;60390.00;0.20;105.15;0.00;0.00;0.62;;;;;1.80;1.00;;;;;;2280665;61;2002;-86
2020/12/27 00:39:23;12782.00;0.04;22.77;0.00;0.00;0.62;;;;;1.80;1.00;;;;;;2280699;61;1113;-87
2020/12/27 00:41:49;0.00;0.00;0.62;0.00;0.00;0.62;;;;;1.80;1.00;;;;;;2280684;61;1114;-87
2020/12/27 00:44:16;0.00;0.00;0.62;0.00;0.00;0.62;;;;;1.60;1.00;;;;;;2279730;61;1566;-87
2020/12/27 00:46:48;150625.00;0.50;260.88;0.00;0.00;0.62;;;;;1.80;1.00;;;;;;2280699;61;1059;-87
2020/12/27 00:49:14;29998.00;0.10;52.58;0.00;0.00;0.62;;;;;1.80;1.00;;;;;;2280698;61;1418;-87
2020/12/27 00:51:41;0.00;0.00;0.62;0.00;0.00;0.62;;;;;1.80;1.00;;;;;;2280709;61;991;-87
2020/12/27 00:54:08;25820.00;0.09;45.35;0.00;0.00;0.62;;;;;1.60;1.00;;;;;;2280667;61;1015;-88
2020/12/27 00:56:34;21450.00;0.07;37.78;0.00;0.00;0.62;;;;;1.60;1.00;;;;;;2280542;61;2025;-88
2020/12/27 00:59:01;22918.00;0.08;40.32;0.00;0.00;0.62;;;;;1.60;1.00;;;;;;2280595;61;1711;-86
2020/12/27 01:01:28;107807.00;0.36;187.05;0.00;0.00;0.62;;;;;1.70;1.00;;;;;;2280674;61;1122;-87
2020/12/27 01:03:54;54617.00;0.18;95.17;0.00;0.00;0.62;;;;;1.60;1.00;;;;;;2280689;61;995;-87
2020/12/27 01:06:25;150443.00;0.50;260.57;0.00;0.00;0.62;;;;;1.40;1.00;;;;;;2280687;61;988;-87
2020/12/27 01:08:51;21972.00;0.07;38.68;0.00;0.00;0.62;;;;;1.50;1.00;;;;;;2280608;61;1457;-88
2020/12/27 01:11:19;96841.00;0.32;168.12;0.00;0.00;0.62;;;;;1.70;1.00;;;;;;2280619;61;1040;-87
2020/12/27 01:13:45;28378.00;0.09;49.78;0.00;0.00;0.62;;;;;1.50;1.00;;;;;;2280654;61;1049;-87
2020/12/27 01:16:12;82008.00;0.27;142.51;0.00;0.00;0.62;;;;;1.50;1.00;;;;;;2280604;61;2002;-88
2020/12/27 01:18:40;25620.00;0.09;45.00;0.00;0.00;0.62;;;;;1.60;1.00;;;;;;2280579;61;1438;-87
2020/12/27 01:21:06;0.00;0.00;0.62;0.00;0.00;0.62;;;;;1.60;1.00;;;;;;2280463;61;1494;-86
2020/12/27 01:23:33;190991.00;0.64;330.41;0.00;0.00;0.62;;;;;1.60;1.00;;;;;;2280612;61;1065;-87
2020/12/27 01:25:59;113452.00;0.38;196.79;0.00;0.00;0.62;;;;;1.60;1.00;;;;;;2280632;61;1760;-87
2020/12/27 01:28:26;75899.00;0.25;131.95;0.00;0.00;0.62;;;;;1.60;1.00;;;;;;2281227;61;1413;-87
2020/12/27 01:30:53;7596.00;0.03;13.78;0.00;0.00;0.62;;;;;1.60;1.00;;;;;;2281272;61;1098;-88
2020/12/27 01:33:19;46659.00;0.16;81.41;0.00;0.00;0.62;;;;;1.30;1.00;;;;;;2281289;61;1059;-87
2020/12/27 01:35:46;0.00;0.00;0.62;0.00;0.00;0.62;;;;;1.20;1.00;;;;;;2281251;61;1933;-87
2020/12/27 01:38:14;101978.00;0.34;176.99;32735.00;0.11;57.32;;;;;1.30;1.00;;;;;;2280974;61;1428;-87
2020/12/27 01:40:40;48459.00;0.16;84.52;0.00;0.00;0.62;;;;;1.40;1.00;;;;;;2281284;61;992;-87
2020/12/27 01:43:07;39424.00;0.13;68.89;0.00;0.00;0.62;;;;;1.30;1.00;;;;;;2281217;61;1823;-86
2020/12/27 01:45:34;158518.00;0.53;274.49;21076.00;0.07;37.13;;;;;1.30;1.00;;;;;;2281263;61;1142;-87
2020/12/27 01:48:02;83901.00;0.28;145.78;0.00;0.00;0.62;;;;;1.40;1.00;;;;;;2281224;61;1423;-87
2020/12/27 01:50:28;44505.00;0.15;77.68;0.00;0.00;0.62;;;;;1.50;1.00;;;;;;2281264;61;1053;-87
2020/12/27 01:52:55;26107.00;0.09;45.84;0.00;0.00;0.62;;;;;1.60;1.00;;;;;;2281208;61;1095;-87
2020/12/27 01:55:21;27296.00;0.09;47.90;0.00;0.00;0.62;;;;;1.50;1.00;;;;;;2281183;61;1101;-87
2020/12/27 01:58:20;0.00;0.00;0.62;0.00;0.00;0.62;;;;;1.60;1.00;;;;;;2281132;61;2009;-89
2020/12/27 02:00:48;5305.00;0.02;9.81;0.00;0.00;0.62;;;;;1.60;1.00;;;;;;2280590;61;1132;-87
2020/12/27 02:03:15;36962.00;0.12;64.63;0.00;0.00;0.62;;;;;1.60;1.00;;;;;;2281170;61;1672;-86
2020/12/27 02:05:44;0.00;0.00;0.62;0.00;0.00;0.62;;;;;1.60;1.00;;;;;;2281219;61;1054;-87
2020/12/27 02:08:12;0.00;0.00;0.62;0.00;0.00;0.62;;;;;1.60;1.00;;;;;;2280796;61;1367;-86
2020/12/27 02:10:39;108085.00;0.36;187.53;9686.00;0.03;17.41;;;;;1.70;1.00;;;;;;2281159;61;1771;-86
2020/12/27 02:13:05;0.00;0.00;0.62;0.00;0.00;0.62;;;;;1.70;1.00;;;;;;2281109;61;1587;-87
2020/12/27 02:15:32;91416.00;0.30;158.75;0.00;0.00;0.62;;;;;1.70;1.00;;;;;;2281096;61;1122;-87
2020/12/27 02:17:59;0.00;0.00;0.62;0.00;0.00;0.62;;;;;1.70;1.00;;;;;;2281098;61;2001;-87
2020/12/27 02:20:26;0.00;0.00;0.62;0.00;0.00;0.62;;;;;1.60;1.00;;;;;;2281096;61;1071;-88
2020/12/27 02:22:53;0.00;0.00;0.62;0.00;0.00;0.62;;;;;1.50;1.00;;;;;;2281086;61;1142;-86
2020/12/27 02:25:20;60619.00;0.20;105.55;0.00;0.00;0.62;;;;;1.50;1.00;;;;;;2281110;61;1127;-88
2020/12/27 02:27:46;0.00;0.00;0.62;0.00;0.00;0.62;;;;;1.60;1.00;;;;;;2281076;61;1405;-87
2020/12/27 02:30:13;83583.00;0.28;145.23;0.00;0.00;0.62;;;;;1.70;1.00;;;;;;2281161;61;1087;-87
2020/12/27 02:32:39;133311.00;0.44;231.04;23567.00;0.08;41.45;;;;;1.60;1.00;;;;;;2281132;61;1010;-87
2020/12/27 02:35:06;0.00;0.00;0.62;0.00;0.00;0.62;;;;;1.60;1.00;;;;;;2281094;61;1060;-86
2020/12/27 02:37:32;13492.00;0.04;24.00;0.00;0.00;0.62;;;;;1.70;1.00;;;;;;2280819;61;1943;-87
2020/12/27 02:39:59;34174.00;0.11;59.81;0.00;0.00;0.62;;;;;1.60;1.00;;;;;;2281003;61;1123;-87
2020/12/27 02:42:26;30298.00;0.10;53.10;0.00;0.00;0.62;;;;;1.40;1.00;;;;;;2281075;61;1026;-87
2020/12/27 02:47:40;64450.00;0.21;112.17;0.00;0.00;0.62;;;;;1.60;1.00;;;;;;2280163;61;1297;-87
2020/12/27 02:50:09;0.00;0.00;0.62;0.00;0.00;0.62;;;;;1.70;1.00;;;;;;2281068;61;1161;-87
2020/12/27 02:52:36;1851.00;0.01;3.83;0.00;0.00;0.62;;;;;1.90;1.00;;;;;;2280960;61;1004;-87
2020/12/27 02:55:03;0.00;0.00;0.62;0.00;0.00;0.62;;;;;1.80;1.00;;;;;;2280978;61;1096;-87
2020/12/27 02:57:31;32168.00;0.11;56.34;0.00;0.00;0.62;;;;;1.70;1.00;;;;;;2280919;61;2001;-86
2020/12/27 02:59:57;143594.00;0.48;248.77;0.00;0.00;0.62;;;;;1.60;1.00;;;;;;2281052;61;1028;-87
2020/12/27 03:02:24;16704.00;0.06;29.56;0.00;0.00;0.62;;;;;1.70;1.00;;;;;;2281041;61;1001;-87
2020/12/27 03:04:50;77676.00;0.26;135.02;5341.00;0.02;9.88;;;;;1.50;1.00;;;;;;2281009;61;1105;-86
2020/12/27 03:07:17;67207.00;0.22;116.93;0.00;0.00;0.62;;;;;1.40;1.00;;;;;;2280953;61;1323;-87
2020/12/27 03:09:43;0.00;0.00;0.62;0.00;0.00;0.62;;;;;1.60;1.00;;;;;;2280987;61;1103;-87
2020/12/27 03:12:10;0.00;0.00;0.62;0.00;0.00;0.62;;;;;1.60;1.00;;;;;;2280982;61;1130;-86
2020/12/27 03:14:37;72780.00;0.24;126.56;0.00;0.00;0.62;;;;;1.40;1.00;;;;;;2280979;61;1148;-87
2020/12/27 03:17:04;0.00;0.00;0.62;0.00;0.00;0.62;;;;;1.40;1.00;;;;;;2280877;61;2009;-86
2020/12/27 03:19:30;24841.00;0.08;43.65;0.00;0.00;0.62;;;;;1.50;1.00;;;;;;2280876;61;2045;-87
2020/12/27 03:21:57;122046.00;0.41;211.61;14472.00;0.05;25.70;;;;;1.40;1.00;;;;;;2280938;61;1095;-87
2020/12/27 03:24:23;313551.00;1.05;541.21;64480.00;0.21;112.22;;;;;1.20;1.00;;;;;;2280948;61;1035;-88
2020/12/27 03:26:50;0.00;0.00;0.62;0.00;0.00;0.62;;;;;1.30;1.00;;;;;;2280867;61;1105;-87
2020/12/27 03:29:16;45447.00;0.15;79.31;0.00;0.00;0.62;;;;;1.50;1.00;;;;;;2280960;61;974;-87
2020/12/27 03:31:44;189240.00;0.63;327.40;48022.00;0.16;83.77;;;;;1.50;1.00;;;;;;2280945;61;1107;-86
2020/12/27 03:34:10;0.00;0.00;0.62;0.00;0.00;0.62;;;;;1.40;1.00;;;;;;2280947;61;982;-87
2020/12/27 03:36:37;26311.00;0.09;46.20;0.00;0.00;0.62;;;;;1.40;1.00;;;;;;2280870;61;1992;-86
2020/12/27 03:39:03;173730.00;0.58;300.69;44726.00;0.15;78.06;;;;;1.60;1.00;;;;;;2280817;61;1400;-87
2020/12/27 03:41:30;0.00;0.00;0.62;0.00;0.00;0.62;;;;;2.00;1.00;;;;;;2280842;61;1089;-87
2020/12/27 03:43:56;29229.00;0.10;51.25;0.00;0.00;0.62;;;;;2.20;1.00;;;;;;2280871;61;1095;-87
2020/12/27 03:46:22;0.00;0.00;0.62;0.00;0.00;0.62;;;;;2.30;1.00;;;;;;2280747;61;1670;-87
2020/12/27 03:48:50;30036.00;0.10;52.65;0.00;0.00;0.62;;;;;2.40;1.00;;;;;;2280758;61;1410;-87
2020/12/27 03:51:16;139660.00;0.47;241.98;0.00;0.00;0.62;;;;;2.50;1.00;;;;;;2280853;61;1191;-87
2020/12/27 03:53:43;28264.00;0.09;49.58;0.00;0.00;0.62;;;;;2.40;1.00;;;;;;2280820;61;1068;-87
2020/12/27 03:56:09;105247.00;0.35;182.63;0.00;0.00;0.62;;;;;2.40;1.00;;;;;;2280799;61;1992;-87
2020/12/27 03:58:36;34445.00;0.11;60.28;0.00;0.00;0.62;;;;;2.50;1.00;;;;;;2280811;61;1304;-88
2020/12/27 04:01:02;0.00;0.00;0.62;0.00;0.00;0.62;;;;;2.50;1.00;;;;;;2280844;61;1107;-87
2020/12/27 04:03:29;0.00;0.00;0.62;0.00;0.00;0.62;;;;;2.30;1.00;;;;;;2280810;61;1102;-88
2020/12/27 04:05:56;35193.00;0.12;61.57;0.00;0.00;0.62;;;;;2.20;1.00;;;;;;2280849;61;1022;-88
2020/12/27 04:08:23;0.00;0.00;0.62;0.00;0.00;0.62;;;;;2.20;1.00;;;;;;2280790;61;1477;-88
2020/12/27 04:10:49;32395.00;0.11;56.73;0.00;0.00;0.62;;;;;2.00;1.00;;;;;;2280789;61;1135;-86
2020/12/27 04:13:15;293715.00;0.98;507.12;21588.00;0.07;38.02;;;;;2.10;1.00;;;;;;2280809;61;1147;-87
2020/12/27 04:15:42;6351.00;0.02;11.63;0.00;0.00;0.62;;;;;2.00;1.00;;;;;;2280576;61;1149;-87
2020/12/27 04:18:08;18621.00;0.06;32.88;0.00;0.00;0.62;;;;;2.00;1.00;;;;;;2280754;61;2006;-88
2020/12/27 04:20:35;152453.00;0.51;264.03;17385.00;0.06;30.74;;;;;2.00;1.00;;;;;;2280714;61;1118;-88
2020/12/27 04:23:02;6889.00;0.02;12.56;0.00;0.00;0.62;;;;;2.10;1.00;;;;;;2280803;61;995;-87
2020/12/27 04:25:30;0.00;0.00;0.62;0.00;0.00;0.62;;;;;2.00;1.00;;;;;;2280719;61;1082;-87
2020/12/27 04:27:56;0.00;0.00;0.62;0.00;0.00;0.62;;;;;1.90;1.00;;;;;;2280623;61;1295;-87
2020/12/27 04:30:23;65076.00;0.22;113.25;0.00;0.00;0.62;;;;;1.90;1.00;;;;;;2280749;61;1157;-87
2020/12/27 04:32:49;0.00;0.00;0.62;0.00;0.00;0.62;;;;;1.80;1.00;;;;;;2280707;61;2255;-87
2020/12/27 04:35:16;127618.00;0.43;221.22;0.00;0.00;0.62;;;;;1.80;1.00;;;;;;2280774;61;996;-86
2020/12/27 04:37:42;0.00;0.00;0.62;0.00;0.00;0.62;;;;;1.80;1.00;;;;;;2280694;61;2005;-86
2020/12/27 04:40:10;90627.00;0.30;157.39;6778.00;0.02;12.37;;;;;1.90;1.00;;;;;;2280709;61;1060;-87
2020/12/27 04:42:36;8401.00;0.03;15.18;0.00;0.00;0.62;;;;;2.10;1.00;;;;;;2280736;61;1098;-87
2020/12/27 04:45:03;0.00;0.00;0.62;0.00;0.00;0.62;;;;;2.10;1.00;;;;;;2280726;61;1117;-87
2020/12/27 04:47:31;93017.00;0.31;161.52;0.00;0.00;0.62;;;;;2.00;1.00;;;;;;2280694;61;1417;-88
2020/12/27 04:49:57;0.00;0.00;0.62;0.00;0.00;0.62;;;;;2.00;1.00;;;;;;2280736;61;1126;-87
2020/12/27 04:52:24;191384.00;0.64;331.09;0.00;0.00;0.62;;;;;1.80;1.00;;;;;;2280700;61;1103;-88
2020/12/27 04:54:51;107090.00;0.36;185.81;0.00;0.00;0.62;;;;;1.80;1.00;;;;;;2280685;61;1009;-87
2020/12/27 04:57:18;0.00;0.00;0.62;0.00;0.00;0.62;;;;;2.00;1.00;;;;;;2280592;61;2000;-87
2020/12/27 04:59:47;21533.00;0.07;37.92;0.00;0.00;0.62;;;;;2.00;1.00;;;;;;2280704;61;991;-87
2020/12/27 05:02:15;0.00;0.00;0.62;0.00;0.00;0.62;;;;;1.90;1.00;;;;;;2280676;61;1065;-87
2020/12/27 05:04:44;11456.00;0.04;20.47;0.00;0.00;0.62;;;;;1.90;1.00;;;;;;2281380;61;971;-87
2020/12/27 05:07:16;61227.00;0.20;106.60;0.00;0.00;0.62;;;;;1.90;1.00;;;;;;2281300;61;1335;-87
2020/12/27 05:09:42;12893.00;0.04;22.96;0.00;0.00;0.62;;;;;1.90;1.00;;;;;;2281291;61;1086;-87
2020/12/27 05:12:10;44025.00;0.15;76.85;0.00;0.00;0.62;;;;;1.80;1.00;;;;;;2281318;61;1123;-87
2020/12/27 05:14:38;0.00;0.00;0.62;0.00;0.00;0.62;;;;;1.60;1.00;;;;;;2281341;61;1086;-88
2020/12/27 05:17:04;76712.00;0.26;133.36;0.00;0.00;0.62;;;;;1.60;1.00;;;;;;2281281;61;1919;-87
2020/12/27 05:19:32;11945.00;0.04;21.32;0.00;0.00;0.62;;;;;1.40;1.00;;;;;;2281310;61;1079;-87
2020/12/27 05:22:08;0.00;0.00;0.62;0.00;0.00;0.62;;;;;1.60;1.00;;;;;;2281289;61;1698;-87
2020/12/27 05:24:37;107983.00;0.36;187.35;0.00;0.00;0.62;;;;;1.90;1.00;;;;;;2281326;61;958;-86
2020/12/27 05:27:06;0.00;0.00;0.62;0.00;0.00;0.62;;;;;1.80;1.00;;;;;;2280683;61;1297;-87
2020/12/27 05:29:34;194547.00;0.65;336.54;53560.00;0.18;93.34;;;;;1.80;1.00;;;;;;2281179;61;1144;-86
2020/12/27 05:32:03;26825.00;0.09;47.09;0.00;0.00;0.62;;;;;1.80;1.00;;;;;;2281289;61;1070;-87
2020/12/27 05:34:30;52540.00;0.18;91.58;0.00;0.00;0.62;;;;;1.70;1.00;;;;;;2281293;61;1162;-86
2020/12/27 05:36:59;0.00;0.00;0.62;0.00;0.00;0.62;;;;;1.60;1.00;;;;;;2281124;61;2010;-87
2020/12/27 05:39:27;55013.00;0.18;95.85;0.00;0.00;0.62;;;;;1.70;1.00;;;;;;2281284;61;996;-86
2020/12/27 05:41:59;44850.00;0.15;78.28;0.00;0.00;0.62;;;;;1.70;1.00;;;;;;2281193;61;1110;-87
2020/12/27 05:44:26;0.00;0.00;0.62;0.00;0.00;0.62;;;;;1.80;1.00;;;;;;2281268;61;1118;-88
2020/12/27 05:46:55;0.00;0.00;0.62;0.00;0.00;0.62;;;;;1.80;1.00;;;;;;2281077;61;1708;-87
2020/12/27 05:49:23;75087.00;0.25;130.55;0.00;0.00;0.62;;;;;1.70;1.00;;;;;;2281219;61;1117;-87
2020/12/27 05:51:55;125827.00;0.42;218.13;0.00;0.00;0.62;;;;;1.70;1.00;;;;;;2281222;61;1671;-87
2020/12/27 05:54:30;0.00;0.00;0.62;0.00;0.00;0.62;;;;;1.90;1.00;;;;;;2280961;61;1085;-87
2020/12/27 05:56:58;38204.00;0.13;66.78;0.00;0.00;0.62;;;;;1.80;1.00;;;;;;2281141;61;2076;-87
2020/12/27 05:59:29;120796.00;0.40;209.46;0.00;0.00;0.62;;;;;1.70;1.00;;;;;;2281043;61;1025;-86
2020/12/27 06:01:57;4642.00;0.02;8.67;0.00;0.00;0.62;;;;;1.80;1.00;;;;;;2281212;61;1179;-87
2020/12/27 06:04:56;19313.00;0.06;34.08;0.00;0.00;0.62;;;;;1.70;1.00;;;;;;2281006;61;1126;-87
2020/12/27 06:07:33;197629.00;0.66;341.84;94513.00;0.32;164.10;;;;;1.70;1.00;;;;;;2279035;61;1514;-87
2020/12/27 06:10:12;0.00;0.00;0.62;0.00;0.00;0.62;;;;;1.60;1.00;;;;;;2281122;61;1760;-86
2020/12/27 06:13:38;41163.00;0.14;71.90;0.00;0.00;0.62;;;;;1.60;1.00;;;;;;2281163;61;1063;-86
2020/12/27 06:16:12;372220.00;1.24;642.05;97612.00;0.33;169.45;;;;;1.50;1.00;;;;;;2281077;61;1079;-86
2020/12/27 06:18:40;0.00;0.00;0.62;0.00;0.00;0.62;;;;;1.20;1.00;;;;;;2281113;61;1410;-87
2020/12/27 06:21:09;28980.00;0.10;50.82;0.00;0.00;0.62;;;;;1.00;1.00;;;;;;2281120;61;971;-86
2020/12/27 06:23:37;0.00;0.00;0.62;0.00;0.00;0.62;;;;;1.10;1.00;;;;;;2281124;61;1162;-86
2020/12/27 06:26:06;19010.00;0.06;33.56;0.00;0.00;0.62;;;;;1.20;1.00;;;;;;2281007;61;1577;-87
2020/12/27 06:28:34;104196.00;0.35;180.81;35809.00;0.12;62.64;;;;;1.30;1.00;;;;;;2280834;61;1332;-87
2020/12/27 06:31:07;48338.00;0.16;84.31;0.00;0.00;0.62;;;;;1.40;1.00;;;;;;2281151;61;977;-87
2020/12/27 06:33:37;51728.00;0.17;90.17;0.00;0.00;0.62;;;;;1.40;1.00;;;;;;2280835;61;1124;-87
2020/12/27 06:36:04;18575.00;0.06;32.80;0.00;0.00;0.62;;;;;1.60;1.00;;;;;;2281043;61;1715;-87
2020/12/27 06:38:33;29704.00;0.10;52.07;0.00;0.00;0.62;;;;;1.50;1.00;;;;;;2281019;61;1927;-88
2020/12/27 06:41:08;79122.00;0.26;137.52;0.00;0.00;0.62;;;;;1.60;1.00;;;;;;2281117;61;1026;-87
2020/12/27 06:43:41;22839.00;0.08;40.19;0.00;0.00;0.62;;;;;1.70;1.00;;;;;;2281070;61;1128;-86
2020/12/27 06:46:26;33272.00;0.11;58.25;0.00;0.00;0.62;;;;;1.60;1.00;;;;;;2281107;61;1054;-86
2020/12/27 06:49:09;37076.00;0.12;64.83;0.00;0.00;0.62;;;;;1.40;1.00;;;;;;2280741;61;1343;-86
2020/12/27 06:51:40;81818.00;0.27;142.18;0.00;0.00;0.62;;;;;1.40;1.00;;;;;;2281056;61;1084;-86
2020/12/27 06:54:07;38875.00;0.13;67.94;0.00;0.00;0.62;;;;;1.50;1.00;;;;;;2281004;61;1119;-86
2020/12/27 06:56:39;0.00;0.00;0.62;0.00;0.00;0.62;;;;;1.50;1.00;;;;;;2280981;61;1992;-86
2020/12/27 06:59:06;34069.00;0.11;59.63;0.00;0.00;0.62;;;;;1.60;1.00;;;;;;2280949;61;1429;-86
2020/12/27 07:01:33;3095.00;0.01;5.98;0.00;0.00;0.62;;;;;1.60;1.00;;;;;;2280927;61;1179;-87
2020/12/27 07:04:20;0.00;0.00;0.62;0.00;0.00;0.62;;;;;1.80;1.00;;;;;;2281016;61;1139;-86
2020/12/27 07:06:48;238468.00;0.79;412.12;48433.00;0.16;84.48;;;;;1.70;1.00;;;;;;2279513;61;1461;-87
2020/12/27 07:09:22;215653.00;0.72;372.86;42994.00;0.14;75.07;;;;;1.70;1.00;;;;;;2280926;61;1601;-86
2020/12/27 07:12:04;49044.00;0.16;85.53;0.00;0.00;0.62;;;;;1.70;1.00;;;;;;2280896;61;1056;-87
2020/12/27 07:14:35;225736.00;0.75;390.21;92984.00;0.31;161.46;;;;;1.60;1.00;;;;;;2280977;61;1063;-86
2020/12/27 07:17:05;0.00;0.00;0.62;0.00;0.00;0.62;;;;;1.70;1.00;;;;;;2280606;61;2010;-86
2020/12/27 07:19:33;226054.00;0.75;390.76;91283.00;0.30;158.52;;;;;1.80;1.00;;;;;;2280936;61;1087;-86
2020/12/27 07:22:04;170489.00;0.57;295.11;91792.00;0.31;159.40;;;;;1.80;1.00;;;;;;2280841;61;1109;-86
2020/12/27 07:24:35;272957.00;0.91;471.43;103187.00;0.34;179.07;;;;;1.80;1.00;;;;;;2280779;61;1087;-86
2020/12/27 07:27:04;198813.00;0.66;343.88;93412.00;0.31;162.20;;;;;1.90;1.00;;;;;;2280884;61;1333;-86
2020/12/27 07:29:35;288856.00;0.96;498.76;88190.00;0.29;153.18;;;;;1.90;1.00;;;;;;2280922;61;1178;-87
2020/12/27 07:32:02;251231.00;0.84;434.07;95858.00;0.32;166.42;;;;;1.70;1.00;;;;;;2280903;61;1736;-86
2020/12/27 07:34:31;331987.00;1.11;572.90;96007.00;0.32;166.68;;;;;1.90;1.00;;;;;;2280742;61;1142;-87
2020/12/27 07:36:59;342003.00;1.14;590.12;92907.00;0.31;161.33;;;;;1.90;1.00;;;;;;2280846;61;1993;-86
2020/12/27 07:40:02;427987.00;1.43;737.92;103177.00;0.34;179.06;;;;;1.90;1.00;;;;;;2280810;61;1132;-87
2020/12/27 07:42:31;257483.00;0.86;444.82;0.00;0.00;0.62;;;;;1.90;1.00;;;;;;2280876;61;1065;-87
2020/12/27 07:45:00;122044.00;0.41;211.61;0.00;0.00;0.62;;;;;1.50;1.00;;;;;;2280739;61;1801;-87
2020/12/27 07:47:27;82246.00;0.27;142.92;0.00;0.00;0.62;;;;;1.10;1.00;;;;;;2280769;61;1424;-87
2020/12/27 07:50:03;311642.00;1.04;537.93;0.00;0.00;0.62;;;;;0.90;1.00;;;;;;2280530;61;1083;-87
2020/12/27 07:52:43;84516.00;0.28;146.84;0.00;0.00;0.62;;;;;1.00;1.00;;;;;;2280884;61;1061;-86
2020/12/27 07:55:10;99278.00;0.33;172.33;0.00;0.00;0.62;;;;;1.10;1.00;;;;;;2280745;61;1113;-86
2020/12/27 07:57:37;205064.00;0.68;354.64;0.00;0.00;0.62;;;;;1.20;1.00;;;;;;2280731;61;1980;-85
2020/12/27 08:00:05;242225.00;0.81;418.58;0.00;0.00;0.62;;;;;1.20;1.00;;;;;;2280844;61;1121;-87
2020/12/27 08:02:32;220868.00;0.74;381.84;0.00;0.00;0.62;;;;;0.90;1.00;;;;;;2280748;61;1149;-86
2020/12/27 08:05:02;609351.00;2.03;1050.37;89814.00;0.30;155.99;;;;;1.10;1.00;;;;;;2280766;61;1114;-87
2020/12/27 08:07:29;700936.00;2.34;1208.86;88192.00;0.29;153.19;;;;;1.40;1.00;;;;;;2280712;61;1450;-88
2020/12/27 08:09:55;555936.00;1.85;958.19;98588.00;0.33;171.13;;;;;1.40;1.00;;;;;;2280672;61;1144;-87
2020/12/27 08:12:22;582175.00;1.94;1003.45;94090.00;0.31;163.37;;;;;1.40;1.00;;;;;;2280821;61;1022;-87
2020/12/27 08:14:51;437766.00;1.46;754.74;97040.00;0.32;168.46;;;;;1.50;1.00;;;;;;2280793;61;1054;-87
2020/12/27 08:17:17;687074.00;2.29;1184.83;158823.00;0.53;275.01;;;;;1.80;1.00;;;;;;2280719;61;1919;-86
2020/12/27 08:19:44;374162.00;1.25;645.39;89676.00;0.30;155.75;;;;;2.00;1.00;;;;;;2280749;61;1165;-88
2020/12/27 08:22:10;368752.00;1.23;636.09;99988.00;0.33;173.55;;;;;2.40;1.00;;;;;;2280777;61;1153;-87
2020/12/27 08:24:37;205445.00;0.68;355.30;88200.00;0.29;153.20;;;;;2.40;1.00;;;;;;2280781;61;1089;-87
2020/12/27 08:27:07;36930.00;0.12;64.58;0.00;0.00;0.62;;;;;2.50;1.00;;;;;;2280225;61;1380;-88
2020/12/27 08:29:33;100183.00;0.33;173.89;28220.00;0.09;49.50;;;;;2.60;1.00;;;;;;2280771;61;1074;-87
2020/12/27 08:32:06;55474.00;0.18;96.65;0.00;0.00;0.62;;;;;2.70;1.00;;;;;;2280725;61;1046;-88
2020/12/27 08:34:33;214402.00;0.71;370.71;92690.00;0.31;160.95;;;;;2.50;1.00;;;;;;2280767;61;1039;-87
2020/12/27 08:37:00;53837.00;0.18;93.82;0.00;0.00;0.62;;;;;2.50;1.00;;;;;;2281105;61;1911;-87
2020/12/27 08:39:35;0.00;0.00;0.62;0.00;0.00;0.62;;;;;2.70;1.00;;;;;;2281465;61;1083;-87
2020/12/27 08:42:05;27706.00;0.09;48.61;0.00;0.00;0.62;;;;;2.80;1.00;;;;;;2281370;61;1086;-87
2020/12/27 08:44:44;7253.00;0.02;13.19;0.00;0.00;0.62;;;;;2.60;1.00;;;;;;2270887;61;1026;-85
2020/12/27 08:47:26;39346.00;0.13;68.76;0.00;0.00;0.62;;;;;2.80;1.00;;;;;;2281248;61;1567;-86
2020/12/27 08:50:02;186666.00;0.62;322.97;20047.00;0.07;35.35;;;;;3.10;1.00;;;;;;2281311;61;942;-86
2020/12/27 08:52:29;62348.00;0.21;108.54;0.00;0.00;0.62;;;;;3.00;1.00;;;;;;2281332;61;968;-86
2020/12/27 08:54:57;21427.00;0.07;37.74;0.00;0.00;0.62;;;;;3.00;1.00;;;;;;2281384;61;1021;-85
2020/12/27 08:57:24;0.00;0.00;0.62;0.00;0.00;0.62;;;;;2.80;1.00;;;;;;2281329;61;1964;-85
2020/12/27 09:00:09;0.00;0.00;0.62;0.00;0.00;0.62;;;;;2.40;1.00;;;;;;2281374;61;1129;-86
2020/12/27 09:02:37;90927.00;0.30;157.91;18712.00;0.06;33.04;;;;;2.40;1.00;;;;;;2281360;61;1114;-86
2020/12/27 09:05:06;182129.00;0.61;315.16;29394.00;0.10;51.53;;;;;2.50;1.00;;;;;;2281363;61;1075;-86
2020/12/27 09:07:35;0.00;0.00;0.62;0.00;0.00;0.62;;;;;2.90;1.00;;;;;;2281259;61;1455;-87
2020/12/27 09:10:09;39885.00;0.13;69.69;0.00;0.00;0.62;;;;;3.20;1.00;;;;;;2281403;61;1062;-86
2020/12/27 09:12:36;0.00;0.00;0.62;0.00;0.00;0.62;;;;;3.40;1.00;;;;;;2281370;61;1099;-87
2020/12/27 09:15:21;0.00;0.00;0.62;0.00;0.00;0.62;;;;;3.50;1.00;;;;;;2281361;61;1089;-87
2020/12/27 09:17:54;204430.00;0.68;353.55;90828.00;0.30;157.74;;;;;3.30;1.00;;;;;;2281279;61;1915;-86
2020/12/27 09:20:23;630455.00;2.10;1086.84;112932.00;0.38;195.89;;;;;3.30;1.00;;;;;;2281283;61;1128;-87
2020/12/27 09:22:49;494508.00;1.65;852.37;125373.00;0.42;217.35;;;;;3.00;1.00;;;;;;2281283;61;1730;-87
2020/12/27 09:25:18;395710.00;1.32;682.43;104128.00;0.35;180.70;;;;;2.80;1.00;;;;;;2281298;61;1716;-84
2020/12/27 09:27:45;337461.00;1.12;582.31;93770.00;0.31;162.82;;;;;3.80;1.00;;;;;;2268631;61;1426;-86
2020/12/27 09:30:15;172898.00;0.58;299.26;97859.00;0.33;169.88;;;;;5.00;1.00;;;;;;2268694;61;1577;-86
2020/12/27 09:32:42;401965.00;1.34;693.18;88461.00;0.29;153.65;;;;;5.90;1.00;;;;;;2268762;61;1106;-87
2020/12/27 09:35:17;254975.00;0.85;440.51;92722.00;0.31;161.01;;;;;6.30;1.00;;;;;;2268659;61;1120;-87
2020/12/27 09:37:44;378207.00;1.26;652.34;90924.00;0.30;157.90;;;;;6.40;1.00;;;;;;2268624;61;2012;-87
2020/12/27 09:40:10;378863.00;1.26;653.47;83915.00;0.28;145.80;;;;;6.30;1.00;;;;;;2268728;61;1071;-87
2020/12/27 09:42:37;498760.00;1.66;859.69;96192.00;0.32;167.00;;;;;6.50;1.00;;;;;;2268721;61;1020;-86
2020/12/27 09:45:20;0.00;0.00;0.62;0.00;0.00;0.62;;;;;6.70;1.00;;;;;;2271269;61;1050;-86
2020/12/27 09:47:55;322615.00;1.08;556.79;91787.00;0.31;159.39;;;;;6.80;1.00;;;;;;2280646;61;1448;-87
2020/12/27 09:50:33;485962.00;1.62;837.66;87849.00;0.29;152.59;;;;;7.20;1.00;;;;;;2274204;61;995;-87
2020/12/27 09:53:00;538703.00;1.80;928.49;88335.00;0.29;153.43;;;;;7.60;1.00;;;;;;2281151;61;1070;-87
2020/12/27 09:55:28;360400.00;1.20;621.74;102026.00;0.34;177.07;;;;;7.70;1.00;;;;;;2280994;61;1565;-87
2020/12/27 09:57:54;342310.00;1.14;590.64;94737.00;0.32;164.49;;;;;7.90;1.00;;;;;;2281176;61;2004;-85
2020/12/27 10:00:21;354308.00;1.18;611.27;109769.00;0.37;190.43;;;;;7.80;1.00;;;;;;2281239;61;1090;-87
2020/12/27 10:02:47;706006.00;2.35;1217.66;230505.00;0.77;398.42;;;;;8.00;1.00;;;;;;2281195;61;1050;-87
2020/12/27 10:05:14;281892.00;0.94;486.79;93646.00;0.31;162.60;;;;;7.90;1.00;;;;;;2281202;61;933;-87
2020/12/27 10:07:43;258059.00;0.86;445.81;93642.00;0.31;162.60;;;;;7.90;1.00;;;;;;2281104;61;1305;-85
2020/12/27 10:10:10;324514.00;1.08;560.06;99198.00;0.33;172.19;;;;;8.20;1.00;;;;;;2281232;61;1074;-86
2020/12/27 10:12:37;520285.00;1.73;896.76;86305.00;0.29;149.93;;;;;8.00;1.00;;;;;;2280803;61;1098;-87
2020/12/27 10:15:05;388186.00;1.29;669.50;89289.00;0.30;155.08;;;;;7.30;1.00;;;;;;2281150;61;1062;-86
2020/12/27 10:17:32;394289.00;1.31;679.99;92045.00;0.31;159.84;;;;;7.10;1.00;;;;;;2281083;61;1913;-87
2020/12/27 10:19:59;400137.00;1.33;690.04;90684.00;0.30;157.49;;;;;7.20;1.00;;;;;;2280921;61;1698;-87